Roland, Iowa
Current Conditions -  °F | °C
As of 6:03 AM on Sunday 25 Jan 2015 (Local Time) from KAMW Reporting Station
Unknown Precip Unknown Precip  
Wind Chill: 27°   Ceiling: 700
Heat Index: 35°   Visibility: 8mi
Dew Point: 33°   Wind: 12mph
Humidity: 92%   Direction: 360°N
Pressure: 29.65"   Gusts: NA
Location:  42.17°N, 93.5°W
Report Text: KAMW 251203Z AUTO 36010KT 8SM UP BKN007 OVC014 02/01 A2965 RMK AO2 UPB1159 CIG 006V011 P0000 T00170006
Loading
Personal Weather Stations






























Interactive Weather Map New forecast layout! Learn more

10-Day Weather Forecast

Advertisements
Track Severe Weather on mobile